Chicago, Illinois
Traffic Map
Current Weather Conditions
Chicago, Illinois
Overcast Light Rain
Overcast
18°
Feels Like: 18°
Wind Chill: 18° Ceiling: 1600
Heat Index: 18° Visibility: 10mi
Dew Point: 14° Wind: 14mph
Humidity: 80% Direction: 60° (ENE)
Pressure: 30.07in Gusts: 0mph
Raw Report DataKMDW 302353Z 06012KT 10SM -RA OVC016 18/14 A3007 RMK AO2 SLP178 P0001 60001 T01780144 10189 20172 58001 $
Traffic Incident Summary
Active as of:
Severity:
Category:
InformationThere was an issue retrieving the traffic information for this location. Please try a different location or try again shortly.
Advertisements
Track Severe Weather on mobile